createdAt,value
2018-05-25T00:00:54.187Z,13.18
2018-05-25T00:03:57.436Z,13.13
2018-05-25T00:07:01.471Z,13.13
2018-05-25T00:10:05.606Z,13.03
2018-05-25T00:13:09.646Z,12.97
2018-05-25T00:16:12.914Z,12.96
2018-05-25T00:19:16.926Z,12.87
2018-05-25T00:22:20.948Z,12.95
2018-05-25T00:25:24.208Z,12.93
2018-05-25T00:28:27.476Z,12.90
2018-05-25T00:31:30.729Z,12.92
2018-05-25T00:34:34.790Z,12.83
2018-05-25T00:37:38.051Z,12.78
2018-05-25T00:40:42.079Z,12.79
2018-05-25T00:43:45.338Z,12.73
2018-05-25T00:46:48.597Z,12.32
2018-05-25T00:49:51.954Z,12.43
2018-05-25T00:52:56.070Z,12.46
2018-05-25T00:56:00.106Z,12.49
2018-05-25T00:59:03.358Z,12.44
2018-05-25T01:02:06.677Z,12.47
2018-05-25T01:05:10.695Z,12.44
2018-05-25T01:08:14.737Z,12.43
2018-05-25T01:11:18.284Z,12.43
2018-05-25T01:14:21.537Z,12.41
2018-05-25T01:17:24.797Z,12.43
2018-05-25T01:20:28.831Z,12.35
2018-05-25T01:23:32.638Z,12.39
2018-05-25T01:26:37.147Z,12.37
2018-05-25T01:29:41.158Z,12.44
2018-05-25T01:32:45.188Z,12.40
2018-05-25T01:35:48.460Z,12.45
2018-05-25T01:38:51.716Z,12.45
2018-05-25T01:41:54.979Z,12.43
2018-05-25T01:44:58.994Z,12.39
2018-05-25T01:48:03.022Z,12.40
2018-05-25T01:51:06.505Z,12.40
2018-05-25T01:54:10.565Z,12.45
2018-05-25T01:57:13.849Z,12.46
2018-05-25T02:00:17.100Z,12.42
2018-05-25T02:03:20.358Z,12.33
2018-05-25T02:06:23.623Z,12.27
2018-05-25T02:09:26.922Z,12.22
2018-05-25T02:12:30.191Z,12.28
2018-05-25T02:15:33.509Z,12.29
2018-05-25T02:18:37.608Z,12.24
2018-05-25T02:21:40.893Z,12.21
2018-05-25T02:24:44.146Z,12.23
2018-05-25T02:27:47.414Z,12.28
2018-05-25T02:30:51.437Z,12.29
2018-05-25T02:33:54.690Z,12.26
2018-05-25T02:36:58.035Z,12.28
2018-05-25T02:40:01.318Z,12.29
2018-05-25T02:43:05.445Z,12.25
2018-05-25T02:46:08.707Z,12.18
2018-05-25T02:49:11.976Z,12.11
2018-05-25T02:52:15.342Z,12.07
2018-05-25T02:55:18.597Z,12.03
2018-05-25T02:58:21.906Z,11.96
2018-05-25T03:01:25.234Z,11.98
2018-05-25T03:04:28.581Z,11.96
2018-05-25T03:07:31.859Z,11.98
2018-05-25T03:10:35.118Z,11.90
2018-05-25T03:13:39.235Z,11.87
2018-05-25T03:16:43.261Z,11.92
2018-05-25T03:19:46.535Z,11.77
2018-05-25T03:22:50.566Z,11.78
2018-05-25T03:25:53.823Z,11.81
2018-05-25T03:28:57.161Z,11.82
2018-05-25T03:32:01.297Z,11.84
2018-05-25T03:35:04.559Z,11.84
2018-05-25T03:38:08.587Z,11.77
2018-05-25T03:41:12.601Z,11.77
2018-05-25T03:44:15.891Z,11.58
2018-05-25T03:47:19.179Z,11.52
2018-05-25T03:50:23.210Z,11.60
2018-05-25T03:53:27.566Z,11.69
2018-05-25T03:56:30.844Z,11.85
2018-05-25T03:59:52.745Z,11.87
2018-05-25T04:02:56.017Z,11.91
2018-05-25T04:05:59.271Z,12.05
2018-05-25T04:09:03.345Z,12.10
2018-05-25T04:12:06.702Z,12.07
2018-05-25T04:15:09.952Z,12.04
2018-05-25T04:18:13.210Z,11.89
2018-05-25T04:21:16.591Z,12.00
2018-05-25T04:24:20.064Z,12.16
2018-05-25T04:27:24.083Z,12.26
2018-05-25T04:30:28.107Z,12.30
2018-05-25T04:33:31.861Z,12.53
2018-05-25T04:36:35.202Z,12.61
2018-05-25T04:39:39.318Z,12.76
2018-05-25T04:42:43.346Z,12.82
2018-05-25T04:45:46.630Z,12.96
2018-05-25T04:48:50.660Z,12.99
2018-05-25T04:51:53.914Z,13.07
2018-05-25T04:54:57.205Z,13.16
2018-05-25T04:58:00.473Z,13.32
2018-05-25T05:01:03.767Z,13.48
2018-05-25T05:04:07.033Z,13.63
2018-05-25T05:07:11.064Z,13.61
2018-05-25T05:10:14.353Z,13.72
2018-05-25T05:13:17.625Z,13.89
2018-05-25T05:16:21.755Z,13.99
2018-05-25T05:19:25.829Z,14.14
2018-05-25T05:22:29.257Z,14.31
2018-05-25T05:25:32.966Z,14.38
2018-05-25T05:28:37.002Z,14.56
2018-05-25T05:31:40.261Z,14.54
2018-05-25T05:34:43.522Z,14.62
2018-05-25T05:37:46.785Z,14.56
2018-05-25T05:40:50.927Z,14.78
2018-05-25T05:43:54.191Z,15.08
2018-05-25T05:46:57.810Z,15.56
2018-05-25T05:50:01.827Z,16.43
2018-05-25T05:53:05.079Z,17.72
2018-05-25T05:56:08.350Z,19.36
2018-05-25T05:59:11.912Z,20.46
2018-05-25T06:02:15.941Z,21.44
2018-05-25T06:05:19.211Z,22.33
2018-05-25T06:08:22.463Z,22.81
2018-05-25T06:11:25.727Z,22.88
2018-05-25T06:14:29.880Z,22.80
2018-05-25T06:17:33.243Z,22.20
2018-05-25T06:20:36.507Z,23.04
2018-05-25T06:23:39.773Z,23.12
2018-05-25T06:26:43.043Z,23.64
2018-05-25T06:29:46.311Z,23.31
2018-05-25T06:32:49.722Z,22.95
2018-05-25T06:35:54.052Z,23.41
2018-05-25T06:38:58.076Z,23.21
2018-05-25T06:42:01.339Z,23.25
2018-05-25T06:45:04.663Z,24.05
2018-05-25T06:48:08.781Z,23.88
2018-05-25T06:51:12.103Z,24.30
2018-05-25T06:54:15.468Z,24.22
2018-05-25T06:57:19.494Z,24.00
2018-05-25T07:00:22.788Z,24.47
2018-05-25T07:03:26.106Z,22.83
2018-05-25T07:06:29.455Z,23.30
2018-05-25T07:09:32.794Z,22.64
2018-05-25T07:12:36.083Z,23.29
2018-05-25T07:15:39.379Z,23.98
2018-05-25T07:18:43.394Z,23.58
2018-05-25T07:21:46.693Z,23.40
2018-05-25T07:24:49.949Z,23.20
2018-05-25T07:27:53.210Z,22.20
2018-05-25T07:30:56.481Z,22.92
2018-05-25T07:34:00.495Z,22.89
2018-05-25T07:37:04.518Z,22.67
2018-05-25T07:40:07.780Z,22.97
2018-05-25T07:43:11.030Z,22.67
2018-05-25T07:46:14.425Z,22.90
2018-05-25T07:49:17.812Z,22.70
2018-05-25T07:52:21.065Z,21.35
2018-05-25T07:55:24.402Z,22.38
2018-05-25T07:58:28.430Z,23.10
2018-05-25T08:01:31.714Z,22.99
2018-05-25T08:04:35.007Z,23.51
2018-05-25T08:07:39.118Z,23.77
2018-05-25T08:10:43.147Z,21.95
2018-05-25T08:13:46.398Z,22.79
2018-05-25T08:16:49.660Z,21.93
2018-05-25T08:19:52.923Z,22.56
2018-05-25T08:22:56.941Z,22.46
2018-05-25T08:26:00.247Z,23.09
2018-05-25T08:29:03.496Z,23.24
2018-05-25T08:32:07.179Z,23.63
2018-05-25T08:35:10.440Z,23.98
2018-05-25T08:38:13.739Z,23.84
2018-05-25T08:41:17.854Z,23.77
2018-05-25T08:44:21.882Z,23.75
2018-05-25T08:47:25.202Z,24.19
2018-05-25T08:50:28.698Z,24.15
2018-05-25T08:53:32.181Z,22.92
2018-05-25T08:56:35.441Z,21.99
2018-05-25T08:59:38.695Z,23.15
2018-05-25T09:02:41.954Z,23.62
2018-05-25T09:05:45.992Z,23.86
2018-05-25T09:08:49.238Z,23.43
2018-05-25T09:11:52.502Z,23.12
2018-05-25T09:14:55.774Z,23.23
2018-05-25T09:17:59.030Z,22.72
2018-05-25T09:21:02.434Z,22.12
2018-05-25T09:24:05.777Z,23.10
2018-05-25T09:27:09.039Z,22.51
2018-05-25T09:30:13.067Z,23.22
2018-05-25T09:33:17.094Z,23.48
2018-05-25T09:36:20.413Z,23.87
2018-05-25T09:39:23.619Z,24.23
2018-05-25T09:42:27.003Z,23.47
2018-05-25T09:45:30.369Z,23.55
2018-05-25T09:48:34.386Z,23.72
2018-05-25T09:51:38.409Z,22.50
2018-05-25T09:54:41.670Z,21.89
2018-05-25T09:57:57.707Z,21.85
2018-05-25T10:01:00.966Z,22.41
2018-05-25T10:04:04.294Z,22.15
2018-05-25T10:07:08.318Z,22.91
2018-05-25T10:10:11.567Z,22.79
2018-05-25T10:13:14.979Z,22.57
2018-05-25T10:16:18.230Z,22.16
2018-05-25T10:19:21.481Z,22.31
2018-05-25T10:22:24.738Z,22.65
2018-05-25T10:25:28.090Z,22.62
2018-05-25T10:28:32.221Z,22.75
2018-05-25T10:31:35.477Z,23.05
2018-05-25T10:34:38.808Z,22.98
2018-05-25T10:37:42.110Z,23.45
2018-05-25T10:40:46.189Z,23.08
2018-05-25T10:43:49.445Z,23.41
2018-05-25T10:46:52.841Z,23.76
2018-05-25T10:49:56.105Z,23.53
2018-05-25T10:53:00.229Z,23.77
2018-05-25T10:56:04.254Z,24.15
2018-05-25T10:59:07.518Z,24.26
2018-05-25T11:02:10.773Z,24.17
2018-05-25T11:05:14.034Z,24.17
2018-05-25T11:08:18.071Z,23.56
2018-05-25T11:11:21.329Z,23.61
2018-05-25T11:14:25.348Z,23.46
2018-05-25T11:17:29.402Z,23.09
2018-05-25T11:20:33.910Z,23.24
2018-05-25T11:23:37.309Z,23.72
2018-05-25T11:26:41.338Z,23.46
2018-05-25T11:29:44.603Z,23.76
2018-05-25T11:32:48.647Z,23.73
2018-05-25T11:35:51.947Z,23.11
2018-05-25T11:38:55.211Z,22.93
2018-05-25T11:41:59.250Z,22.77
2018-05-25T11:45:02.519Z,22.64
2018-05-25T11:48:05.786Z,22.89
2018-05-25T11:51:09.057Z,24.05
2018-05-25T11:54:12.338Z,24.49
2018-05-25T11:57:15.648Z,23.89
2018-05-25T12:00:19.423Z,23.27
2018-05-25T12:03:22.711Z,23.41
2018-05-25T12:06:25.970Z,23.16
2018-05-25T12:09:29.991Z,23.31
2018-05-25T12:12:33.272Z,23.83
2018-05-25T12:15:36.533Z,23.89
2018-05-25T12:18:40.565Z,24.26
2018-05-25T12:21:43.861Z,24.42
2018-05-25T12:24:47.132Z,23.96
2018-05-25T12:27:51.784Z,23.97
2018-05-25T12:30:55.051Z,23.56
2018-05-25T12:33:58.305Z,22.88
2018-05-25T12:37:01.582Z,22.83
2018-05-25T12:40:04.830Z,23.10
2018-05-25T12:43:08.097Z,22.82
2018-05-25T12:46:11.522Z,23.44
2018-05-25T12:49:14.786Z,23.73
2018-05-25T12:52:18.048Z,23.85
2018-05-25T12:55:22.198Z,23.26
2018-05-25T12:58:25.645Z,23.09
2018-05-25T13:01:29.728Z,23.01
2018-05-25T13:04:33.316Z,23.45
2018-05-25T13:07:36.694Z,23.75
2018-05-25T13:10:40.816Z,23.82
2018-05-25T13:13:45.124Z,23.90
2018-05-25T13:16:49.182Z,23.44
2018-05-25T13:19:52.455Z,23.57
2018-05-25T13:22:55.807Z,23.80
2018-05-25T13:25:59.082Z,23.43
2018-05-25T13:29:02.409Z,23.60
2018-05-25T13:32:05.778Z,23.34
2018-05-25T13:35:09.071Z,23.37
2018-05-25T13:38:12.396Z,23.48
2018-05-25T13:41:15.750Z,23.46
2018-05-25T13:44:19.130Z,23.62
2018-05-25T13:47:24.142Z,23.71
2018-05-25T13:50:27.488Z,23.93
2018-05-25T13:53:31.032Z,23.98
2018-05-25T13:56:34.398Z,24.15
2018-05-25T13:59:37.657Z,24.64
2018-05-25T14:02:41.694Z,24.47
2018-05-25T14:05:45.018Z,24.47
2018-05-25T14:08:48.320Z,24.67
2018-05-25T14:11:51.859Z,24.55
2018-05-25T14:14:55.427Z,24.19
2018-05-25T14:17:59.542Z,24.42
2018-05-25T14:21:02.811Z,24.43
2018-05-25T14:24:06.204Z,24.38
2018-05-25T14:27:10.234Z,24.46
2018-05-25T14:30:13.521Z,24.39
2018-05-25T14:33:18.174Z,24.41
2018-05-25T14:36:21.692Z,24.18
2018-05-25T14:39:25.782Z,24.29
2018-05-25T14:42:49.821Z,24.43
2018-05-25T14:45:54.843Z,24.52
2018-05-25T14:48:58.118Z,24.71
2018-05-25T14:52:02.438Z,24.68
2018-05-25T14:55:05.734Z,24.70
2018-05-25T14:58:09.007Z,24.61
2018-05-25T15:01:13.227Z,24.47
2018-05-25T15:04:16.537Z,24.47
2018-05-25T15:07:19.815Z,24.27
2018-05-25T15:10:24.651Z,24.24
2018-05-25T15:13:27.931Z,23.92
2018-05-25T15:16:31.315Z,24.32
2018-05-25T15:19:34.588Z,24.88
2018-05-25T15:22:37.848Z,24.51
2018-05-25T15:25:41.247Z,23.10
2018-05-25T15:28:45.709Z,22.78
2018-05-25T15:31:49.001Z,22.33
2018-05-25T15:34:53.238Z,22.25
2018-05-25T15:37:56.516Z,21.92
2018-05-25T15:40:59.795Z,21.94
2018-05-25T15:44:03.064Z,21.95
2018-05-25T15:47:07.117Z,21.51
2018-05-25T15:50:10.671Z,21.56
2018-05-25T15:53:14.406Z,21.62
2018-05-25T15:56:17.781Z,21.72
2018-05-25T15:59:21.025Z,21.72
2018-05-25T16:02:24.419Z,21.80
2018-05-25T16:05:53.039Z,21.67
2018-05-25T16:08:56.998Z,21.75
2018-05-25T16:12:01.189Z,21.82
2018-05-25T16:15:04.582Z,21.84
2018-05-25T16:18:07.874Z,21.64
2018-05-25T16:21:11.141Z,21.56
2018-05-25T16:24:14.403Z,21.49
2018-05-25T16:27:18.426Z,21.49
2018-05-25T16:30:22.498Z,21.58
2018-05-25T16:33:25.775Z,21.77
2018-05-25T16:36:29.092Z,21.88
2018-05-25T16:39:32.385Z,22.03
2018-05-25T16:42:36.481Z,21.98
2018-05-25T16:45:39.779Z,23.05
2018-05-25T16:48:43.263Z,23.89
2018-05-25T16:51:46.712Z,23.52
2018-05-25T16:54:50.774Z,23.57
2018-05-25T16:57:54.123Z,23.73
2018-05-25T17:00:57.410Z,22.84
2018-05-25T17:04:01.823Z,22.44
2018-05-25T17:07:05.079Z,22.35
2018-05-25T17:10:09.105Z,22.01
2018-05-25T17:13:13.134Z,21.58
2018-05-25T17:16:16.471Z,21.16
2018-05-25T17:19:20.534Z,20.89
2018-05-25T17:22:24.613Z,20.78
2018-05-25T17:25:27.870Z,20.63
2018-05-25T17:28:31.206Z,20.51
2018-05-25T17:31:34.465Z,20.31
2018-05-25T17:34:37.740Z,20.22
2018-05-25T17:37:41.771Z,20.13
2018-05-25T17:40:45.052Z,20.01
2018-05-25T17:43:48.400Z,19.91
2018-05-25T17:46:51.690Z,19.75
2018-05-25T17:49:54.948Z,19.62
2018-05-25T17:52:59.090Z,19.57
2018-05-25T17:56:02.365Z,19.44
2018-05-25T17:59:05.654Z,19.38
2018-05-25T18:02:09.688Z,19.41
2018-05-25T18:05:12.962Z,19.44
2018-05-25T18:08:17.100Z,19.39
2018-05-25T18:11:20.385Z,19.48
2018-05-25T18:14:24.497Z,19.42
2018-05-25T18:17:28.726Z,19.29
2018-05-25T18:20:34.063Z,19.30
2018-05-25T18:23:38.213Z,19.19
2018-05-25T18:26:41.483Z,19.07
2018-05-25T18:29:44.770Z,19.00
2018-05-25T18:32:48.834Z,18.92
2018-05-25T18:35:52.155Z,18.91
2018-05-25T18:38:55.414Z,18.87
2018-05-25T18:41:58.687Z,18.86
2018-05-25T18:45:02.149Z,18.87
2018-05-25T18:48:06.176Z,18.76
2018-05-25T18:51:09.537Z,18.56
2018-05-25T18:54:30.726Z,18.26
2018-05-25T18:57:34.351Z,18.27
2018-05-25T19:00:37.641Z,18.23
2018-05-25T19:03:40.923Z,18.18
2018-05-25T19:06:44.179Z,18.00
2018-05-25T19:09:47.441Z,18.04
2018-05-25T19:12:50.716Z,17.97
2018-05-25T19:15:54.031Z,17.86
2018-05-25T19:18:57.346Z,17.83
2018-05-25T19:22:00.597Z,17.75
2018-05-25T19:25:04.637Z,17.74
2018-05-25T19:28:07.916Z,17.70
2018-05-25T19:31:11.956Z,17.64
2018-05-25T19:34:15.311Z,17.56
2018-05-25T19:37:18.651Z,17.42
2018-05-25T19:40:21.934Z,17.31
2018-05-25T19:43:25.963Z,17.26
2018-05-25T19:46:29.235Z,17.09
2018-05-25T19:49:33.264Z,17.07
2018-05-25T19:52:36.553Z,17.08
2018-05-25T19:55:39.871Z,16.93
2018-05-25T19:58:43.182Z,16.84
2018-05-25T20:01:46.488Z,16.82
2018-05-25T20:04:49.752Z,16.73
2018-05-25T20:07:53.777Z,16.69
2018-05-25T20:10:57.052Z,16.54
2018-05-25T20:14:01.074Z,16.43
2018-05-25T20:17:05.356Z,16.37
2018-05-25T20:20:08.665Z,16.30
2018-05-25T20:23:12.030Z,16.27
2018-05-25T20:26:15.348Z,16.26
2018-05-25T20:29:18.677Z,16.25
2018-05-25T20:32:22.712Z,16.14
2018-05-25T20:35:26.114Z,16.03
2018-05-25T20:38:29.377Z,16.01
2018-05-25T20:41:32.690Z,16.02
2018-05-25T20:44:36.707Z,15.95
2018-05-25T20:47:40.112Z,15.95
2018-05-25T20:50:44.139Z,15.84
2018-05-25T20:53:47.438Z,15.77
2018-05-25T20:56:50.753Z,15.69
2018-05-25T20:59:54.124Z,15.62
2018-05-25T21:02:58.269Z,15.65
2018-05-25T21:06:02.288Z,15.61
2018-05-25T21:09:06.493Z,15.62
2018-05-25T21:12:09.792Z,15.51
2018-05-25T21:15:13.057Z,15.47
2018-05-25T21:18:17.410Z,15.42
2018-05-25T21:21:24.658Z,15.46
2018-05-25T21:24:27.975Z,15.36
2018-05-25T21:27:34.665Z,15.29
2018-05-25T21:30:38.058Z,15.26
2018-05-25T21:33:41.415Z,15.13
2018-05-25T21:36:45.077Z,15.14
2018-05-25T21:39:49.312Z,15.11
2018-05-25T21:42:53.414Z,14.97
2018-05-25T21:45:56.712Z,14.95
2018-05-25T21:49:00.330Z,14.85
2018-05-25T21:52:03.638Z,14.83
2018-05-25T21:55:07.607Z,14.77
2018-05-25T21:58:10.876Z,14.79
2018-05-25T22:01:14.137Z,14.59
2018-05-25T22:04:18.155Z,14.58
2018-05-25T22:07:22.217Z,14.49
2018-05-25T22:10:25.479Z,14.44
2018-05-25T22:13:29.523Z,14.45
2018-05-25T22:16:32.833Z,14.43
2018-05-25T22:19:36.091Z,14.48
2018-05-25T22:22:40.242Z,14.34
2018-05-25T22:25:43.506Z,14.25
2018-05-25T22:28:46.769Z,14.20
2018-05-25T22:31:50.086Z,14.20
2018-05-25T22:34:55.055Z,14.16
2018-05-25T22:37:58.317Z,14.12
2018-05-25T22:41:02.350Z,14.15
2018-05-25T22:44:23.378Z,14.11
2018-05-25T22:47:44.362Z,14.06
2018-05-25T22:51:06.025Z,14.01
2018-05-25T22:54:14.869Z,13.99
2018-05-25T22:57:18.167Z,14.00
2018-05-25T23:00:21.423Z,13.95
2018-05-25T23:03:24.682Z,13.84
2018-05-25T23:06:27.958Z,13.77
2018-05-25T23:09:31.217Z,13.77
2018-05-25T23:12:34.479Z,13.80
2018-05-25T23:15:37.755Z,13.66
2018-05-25T23:18:41.042Z,13.62
2018-05-25T23:21:44.285Z,13.65
2018-05-25T23:24:48.300Z,13.62
2018-05-25T23:27:52.401Z,13.60
2018-05-25T23:30:56.457Z,13.49
2018-05-25T23:33:59.727Z,13.45
2018-05-25T23:37:03.792Z,13.43
2018-05-25T23:40:07.047Z,13.41
2018-05-25T23:43:11.069Z,13.38
2018-05-25T23:46:15.098Z,13.45
2018-05-25T23:49:18.353Z,13.39
2018-05-25T23:52:21.611Z,13.35
2018-05-25T23:55:24.861Z,13.31
2018-05-25T23:58:28.887Z,13.30
